Collinwood, Tennessee
Current Conditions -  °F | °C
As of 11:35 AM on Monday 22 Dec 2014 (Local Time) from KSNH Reporting Station
Overcast Overcast  
Wind Chill: 52°   Ceiling: 1000
Heat Index: 52°   Visibility: 4mi
Dew Point: 50°   Wind: 9mph
Humidity: 94%   Direction: 140°SE
Pressure: 29.81"   Gusts: NA
Location:  35.17°N, 87.74°W
Report Text: KSNH 221735Z AUTO 14008KT 4SM OVC010 11/10 A2981 RMK
Loading
Personal Weather Stations






























Interactive Weather Map New forecast layout! Learn more

10-Day Weather Forecast

Advertisements
Track Severe Weather on mobile